Time;durP1;ratioP1;P1;durP2;ratioP2;P2;SDS_P1;SDS_P2;PMS_P1;PMS_P2;Temp;Humidity;BMP_temperature;BMP_pressure;BME280_temperature;BME280_humidity;BME280_pressure;Samples;Min_cycle;Max_cycle;Signal;HPM_P1;HPM_P2
2021/03/11 00:01:29;;;;;;;57.50;39.60;;;7.40;99.90;;;;;;5092498;28;20043;-50
2021/03/11 00:03:55;;;;;;;57.88;40.63;;;7.20;99.90;;;;;;5094170;28;20474;-50
2021/03/11 00:06:21;;;;;;;59.47;40.40;;;7.20;99.90;;;;;;5094374;28;20024;-49
2021/03/11 00:08:47;;;;;;;61.67;41.95;;;7.00;99.90;;;;;;5094531;28;20063;-50
2021/03/11 00:11:12;;;;;;;55.03;40.95;;;6.90;99.90;;;;;;5094333;28;20106;-50
2021/03/11 00:13:38;;;;;;;54.42;40.67;;;6.90;99.90;;;;;;5109180;28;20069;-50
2021/03/11 00:16:04;;;;;;;56.47;41.97;;;6.90;99.90;;;;;;5092104;28;20035;-49
2021/03/11 00:18:30;;;;;;;64.05;43.08;;;6.90;99.90;;;;;;5091864;28;20054;-50
2021/03/11 00:20:56;;;;;;;61.50;42.53;;;6.90;99.90;;;;;;5109118;28;20028;-49
2021/03/11 00:23:22;;;;;;;53.83;40.47;;;6.80;99.90;;;;;;5094255;28;20068;-49
2021/03/11 00:25:48;;;;;;;61.45;42.22;;;6.80;99.90;;;;;;5093720;28;20536;-50
2021/03/11 00:28:14;;;;;;;81.50;50.13;;;;;;;;;;5091924;28;20038;-49
2021/03/11 00:30:40;;;;;;;84.20;51.40;;;;;;;;;;5094254;28;20051;-48
2021/03/11 00:33:06;;;;;;;94.90;54.45;;;5.60;99.90;;;;;;5093613;28;20028;-49
2021/03/11 00:35:32;;;;;;;92.72;56.65;;;5.80;99.90;;;;;;5094043;28;20020;-49
2021/03/11 00:37:57;;;;;;;85.55;55.15;;;5.90;99.90;;;;;;5093898;28;20435;-49
2021/03/11 00:40:23;;;;;;;82.80;52.95;;;6.00;99.90;;;;;;5091561;28;20035;-49
2021/03/11 00:42:49;;;;;;;79.47;51.30;;;6.10;99.90;;;;;;5093743;28;20040;-50
2021/03/11 00:45:16;;;;;;;72.22;48.65;;;6.10;99.90;;;;;;5093981;28;20096;-50
2021/03/11 00:47:42;;;;;;;82.97;60.95;;;6.10;99.90;;;;;;5057801;28;20067;-48
2021/03/11 00:50:12;;;;;;;83.57;62.38;;;6.00;99.90;;;;;;5093432;28;20035;-49
2021/03/11 00:52:38;;;;;;;65.68;48.33;;;5.80;99.90;;;;;;5091635;28;20048;-50
2021/03/11 00:55:08;;;;;;;70.63;48.67;;;5.70;99.90;;;;;;5093687;28;20031;-51
2021/03/11 00:57:34;;;;;;;69.68;47.78;;;;;;;;;;5108781;28;20063;-49
2021/03/11 01:00:00;;;;;;;69.22;49.08;;;5.10;99.90;;;;;;5093771;28;20021;-49
2021/03/11 01:02:26;;;;;;;106.00;67.57;;;5.00;99.90;;;;;;5108714;28;20047;-48
2021/03/11 01:04:51;;;;;;;74.82;50.47;;;5.10;99.90;;;;;;5091652;28;20047;-49
2021/03/11 01:07:18;;;;;;;71.82;49.13;;;5.40;99.90;;;;;;5093412;28;20499;-49
2021/03/11 01:09:44;;;;;;;70.50;47.65;;;5.50;99.90;;;;;;5093655;28;20103;-50
2021/03/11 01:12:15;;;;;;;67.13;48.67;;;5.70;99.90;;;;;;5093324;28;20468;-49
2021/03/11 01:14:42;;;;;;;76.10;52.58;;;5.70;99.90;;;;;;5093908;28;20031;-48
2021/03/11 01:17:08;;;;;;;79.63;55.35;;;5.80;99.90;;;;;;5093630;28;20036;-50
2021/03/11 01:19:34;;;;;;;75.22;52.50;;;5.80;99.90;;;;;;5093673;28;20030;-49
2021/03/11 01:22:00;;;;;;;74.90;52.92;;;5.90;99.90;;;;;;5093444;28;20028;-50
2021/03/11 01:24:26;;;;;;;79.82;53.13;;;5.80;99.90;;;;;;5057239;28;20028;-49
2021/03/11 01:26:52;;;;;;;75.18;54.03;;;5.80;99.90;;;;;;5093634;28;20379;-49
2021/03/11 01:29:18;;;;;;;72.78;52.35;;;5.90;99.90;;;;;;5093880;28;20028;-49
2021/03/11 01:31:44;;;;;;;79.88;53.30;;;5.80;99.90;;;;;;5093099;28;20029;-49
2021/03/11 01:34:09;;;;;;;66.50;49.42;;;5.70;99.90;;;;;;5093638;28;20424;-49
2021/03/11 01:36:35;;;;;;;67.68;48.53;;;5.70;99.90;;;;;;5091185;28;20032;-48
2021/03/11 01:39:01;;;;;;;60.08;43.20;;;5.70;99.90;;;;;;5093229;28;20444;-50
2021/03/11 01:41:27;;;;;;;53.65;40.08;;;5.70;99.90;;;;;;5108491;28;20161;-49
2021/03/11 01:43:56;;;;;;;49.10;37.08;;;5.70;99.90;;;;;;5093338;28;20032;-49
2021/03/11 01:46:26;;;;;;;68.78;46.13;;;5.70;99.90;;;;;;5093103;28;20520;-49
2021/03/11 01:48:52;;;;;;;60.70;42.33;;;5.60;99.90;;;;;;5093570;28;20466;-48
2021/03/11 01:51:21;;;;;;;54.05;39.28;;;5.50;99.90;;;;;;5093067;28;20083;-50
2021/03/11 01:53:47;;;;;;;61.75;42.45;;;5.50;99.90;;;;;;5093235;28;20387;-49
2021/03/11 01:56:13;;;;;;;59.80;41.78;;;5.50;99.90;;;;;;5091961;28;20028;-50
2021/03/11 01:58:39;;;;;;;58.00;40.85;;;5.50;99.90;;;;;;5093646;28;20111;-50
2021/03/11 02:01:05;;;;;;;50.33;36.88;;;5.40;99.90;;;;;;5091117;28;20032;-49
2021/03/11 02:03:31;;;;;;;53.10;38.33;;;5.40;99.90;;;;;;5090823;28;20348;-50
2021/03/11 02:05:57;;;;;;;52.33;39.15;;;5.40;99.90;;;;;;5093408;28;20074;-50
2021/03/11 02:08:23;;;;;;;51.33;37.00;;;5.40;99.90;;;;;;5093000;28;20040;-50
2021/03/11 02:10:49;;;;;;;47.25;34.55;;;5.40;99.90;;;;;;5091538;28;20115;-49
2021/03/11 02:13:52;;;;;;;46.45;33.40;;;5.40;99.90;;;;;;5093271;28;20035;-49
2021/03/11 02:16:34;;;;;;;39.60;29.88;;;5.50;99.90;;;;;;5050302;28;20033;-49
2021/03/11 02:19:02;;;;;;;39.90;30.53;;;5.40;99.90;;;;;;5003261;28;20037;-50
2021/03/11 02:21:45;;;;;;;41.60;31.55;;;5.30;99.90;;;;;;5053902;28;20037;-49
2021/03/11 02:24:37;;;;;;;40.75;32.55;;;5.30;99.90;;;;;;5036387;28;20045;-50
2021/03/11 02:27:15;;;;;;;64.43;41.97;;;5.30;99.90;;;;;;5036827;28;20544;-49
2021/03/11 02:29:42;;;;;;;52.22;35.65;;;5.20;99.90;;;;;;5054325;28;20044;-51
2021/03/11 02:32:11;;;;;;;51.65;35.92;;;5.20;99.90;;;;;;5054026;28;20040;-49
2021/03/11 02:34:58;;;;;;;56.75;38.72;;;5.30;99.90;;;;;;5054181;28;20033;-49
2021/03/11 02:37:32;;;;;;;54.38;37.38;;;5.30;99.90;;;;;;5054044;28;20380;-49
2021/03/11 02:40:04;;;;;;;44.63;32.80;;;5.30;99.90;;;;;;5053386;28;20037;-48
2021/03/11 02:42:33;;;;;;;45.25;32.15;;;5.30;99.90;;;;;;5053918;28;20033;-49
2021/03/11 02:44:59;;;;;;;63.80;43.20;;;5.20;99.90;;;;;;4994727;28;20039;-49
2021/03/11 02:47:25;;;;;;;58.42;40.88;;;4.90;99.90;;;;;;4994487;28;20046;-49
2021/03/11 02:49:54;;;;;;;58.75;41.13;;;4.60;99.90;;;;;;4994576;28;20049;-48
2021/03/11 02:52:21;;;;;;;46.15;34.65;;;4.30;99.90;;;;;;5014947;28;20045;-49
2021/03/11 02:54:48;;;;;;;44.75;33.03;;;4.50;99.90;;;;;;5053334;28;20037;-48
2021/03/11 02:57:19;;;;;;;43.67;31.33;;;4.60;99.90;;;;;;5053785;28;20059;-51
2021/03/11 02:59:46;;;;;;;41.03;32.00;;;4.80;99.90;;;;;;5053642;28;20499;-50
2021/03/11 03:02:14;;;;;;;44.35;33.55;;;4.80;99.90;;;;;;5053477;28;20025;-48
2021/03/11 03:04:44;;;;;;;47.47;34.03;;;4.80;99.90;;;;;;5053575;28;20041;-49
2021/03/11 03:07:10;;;;;;;50.00;34.25;;;4.80;99.90;;;;;;5036506;28;20104;-48
2021/03/11 03:09:38;;;;;;;46.42;33.30;;;4.60;99.90;;;;;;5053424;28;20381;-50
2021/03/11 03:12:04;;;;;;;43.53;31.55;;;4.70;99.90;;;;;;5053590;28;20495;-51
2021/03/11 03:14:30;;;;;;;41.00;30.17;;;4.70;99.90;;;;;;5036577;28;20543;-49
2021/03/11 03:16:56;;;;;;;43.90;30.15;;;4.70;99.90;;;;;;5087593;28;20042;-48
2021/03/11 03:19:23;;;;;;;36.78;27.42;;;4.70;99.90;;;;;;5093254;28;20032;-50
2021/03/11 03:21:50;;;;;;;38.38;28.92;;;4.70;99.90;;;;;;5093669;28;20410;-50
2021/03/11 03:24:19;;;;;;;36.75;27.42;;;4.70;99.90;;;;;;5093200;28;20491;-49
2021/03/11 03:26:45;;;;;;;35.75;26.02;;;4.60;99.90;;;;;;5076305;28;20070;-48
2021/03/11 03:29:11;;;;;;;35.90;27.73;;;4.60;99.90;;;;;;5059145;28;20040;-49
2021/03/11 03:31:41;;;;;;;34.75;26.33;;;4.60;99.90;;;;;;5092740;28;20054;-50
2021/03/11 03:34:06;;;;;;;34.42;27.05;;;4.60;99.90;;;;;;5093120;28;20078;-48
2021/03/11 03:36:32;;;;;;;35.55;27.52;;;4.50;99.90;;;;;;5093379;28;20040;-49
2021/03/11 03:38:58;;;;;;;33.72;27.08;;;4.50;99.90;;;;;;5093152;28;20110;-49
2021/03/11 03:41:27;;;;;;;34.85;26.27;;;4.60;99.90;;;;;;5093126;28;20407;-50
2021/03/11 03:43:53;;;;;;;38.60;26.48;;;4.60;99.90;;;;;;5093286;28;20549;-49
2021/03/11 03:46:23;;;;;;;35.22;26.33;;;4.60;99.90;;;;;;5075401;28;20059;-48
2021/03/11 03:48:57;;;;;;;35.17;27.65;;;4.60;99.90;;;;;;5073683;28;20036;-49
2021/03/11 03:51:26;;;;;;;42.50;30.25;;;4.50;99.90;;;;;;5095390;28;20032;-48
2021/03/11 03:54:09;;;;;;;41.05;28.55;;;4.10;99.90;;;;;;5094695;28;20031;-49
2021/03/11 03:56:44;;;;;;;38.53;27.92;;;4.00;99.90;;;;;;5093232;28;20036;-49
2021/03/11 03:59:13;;;;;;;36.72;28.00;;;4.10;99.90;;;;;;5094585;28;20024;-49
2021/03/11 04:01:41;;;;;;;44.33;29.67;;;4.20;99.90;;;;;;5094685;28;20112;-50
2021/03/11 04:04:09;;;;;;;37.92;28.90;;;4.20;99.90;;;;;;5094935;28;20104;-48
2021/03/11 04:06:36;;;;;;;37.65;27.70;;;4.30;99.90;;;;;;5110002;28;20501;-49
2021/03/11 04:09:06;;;;;;;33.72;26.02;;;4.30;99.90;;;;;;5094798;28;20111;-49
2021/03/11 04:11:33;;;;;;;39.40;26.92;;;4.40;99.90;;;;;;5089851;28;20059;-50
2021/03/11 04:13:59;;;;;;;36.10;27.90;;;4.40;99.90;;;;;;5091661;28;20047;-49
2021/03/11 04:16:27;;;;;;;38.97;26.38;;;4.40;99.90;;;;;;5058776;28;20039;-49
2021/03/11 04:18:56;;;;;;;38.50;26.75;;;4.40;99.90;;;;;;5092755;28;20028;-49
2021/03/11 04:21:23;;;;;;;38.08;26.80;;;4.40;99.90;;;;;;5092209;28;20036;-49
2021/03/11 04:23:49;;;;;;;44.30;25.38;;;4.40;99.90;;;;;;5092678;28;20039;-49
2021/03/11 04:26:16;;;;;;;40.03;26.48;;;4.30;99.90;;;;;;5052230;28;20082;-48
2021/03/11 04:28:43;;;;;;;35.47;24.45;;;4.20;99.90;;;;;;5051395;28;20037;-52
2021/03/11 04:31:09;;;;;;;37.45;26.98;;;4.30;99.90;;;;;;5052140;28;20177;-49
2021/03/11 04:33:35;;;;;;;38.80;27.27;;;4.30;99.90;;;;;;5018770;28;20033;-49
2021/03/11 04:36:02;;;;;;;39.90;27.13;;;4.30;99.90;;;;;;5051350;28;20533;-50
2021/03/11 04:38:27;;;;;;;36.38;25.65;;;4.30;99.90;;;;;;5031398;28;20072;-49
2021/03/11 04:40:54;;;;;;;34.53;24.77;;;4.20;99.90;;;;;;5014139;28;20033;-48
2021/03/11 04:43:20;;;;;;;31.25;23.25;;;4.20;99.90;;;;;;5031498;28;20049;-49
2021/03/11 04:45:47;;;;;;;32.20;24.80;;;4.20;99.90;;;;;;4998019;28;20034;-48
2021/03/11 04:48:13;;;;;;;34.92;24.70;;;4.20;99.90;;;;;;5031792;28;20025;-48
2021/03/11 04:50:41;;;;;;;35.53;25.27;;;3.70;99.90;;;;;;5031215;28;20050;-49
2021/03/11 04:53:08;;;;;;;33.58;24.23;;;3.80;99.90;;;;;;4991373;28;20132;-49
2021/03/11 04:55:35;;;;;;;37.17;24.50;;;3.90;99.90;;;;;;4991886;28;20034;-49
2021/03/11 04:58:02;;;;;;;36.47;27.85;;;3.90;99.90;;;;;;5008073;28;20086;-49
2021/03/11 05:00:28;;;;;;;32.03;25.10;;;3.90;99.90;;;;;;5011816;28;20037;-48
2021/03/11 05:02:57;;;;;;;32.00;25.73;;;3.90;99.90;;;;;;5011651;28;20563;-49
2021/03/11 05:05:34;;;;;;;37.00;26.30;;;3.90;99.90;;;;;;5011385;28;20035;-49
2021/03/11 05:08:00;;;;;;;36.90;25.75;;;3.60;99.90;;;;;;4991189;28;20062;-48
2021/03/11 05:10:26;;;;;;;34.05;25.88;;;3.60;99.90;;;;;;4992198;28;20049;-48
2021/03/11 05:12:52;;;;;;;39.88;26.67;;;3.80;99.90;;;;;;4992119;28;20370;-49
2021/03/11 05:15:18;;;;;;;40.70;27.48;;;3.90;99.90;;;;;;4991551;28;20045;-49
2021/03/11 05:17:44;;;;;;;37.70;27.55;;;3.80;99.90;;;;;;4959555;28;20042;-49
2021/03/11 05:20:11;;;;;;;38.22;27.40;;;3.90;99.90;;;;;;4991610;28;20053;-48
2021/03/11 05:22:37;;;;;;;40.70;26.83;;;3.80;99.90;;;;;;4943180;28;20065;-49
2021/03/11 05:25:07;;;;;;;38.67;27.17;;;3.80;99.90;;;;;;5027537;28;20041;-49
2021/03/11 05:27:33;;;;;;;37.85;26.35;;;3.90;99.90;;;;;;4959480;28;20047;-49
2021/03/11 05:29:59;;;;;;;39.28;28.38;;;3.80;99.90;;;;;;4959279;28;20053;-49
2021/03/11 05:32:25;;;;;;;41.10;30.42;;;3.70;99.90;;;;;;4991558;28;20031;-49
2021/03/11 05:34:50;;;;;;;41.72;29.88;;;3.80;99.90;;;;;;4992200;28;20031;-49
2021/03/11 05:37:16;;;;;;;42.65;30.08;;;3.90;99.90;;;;;;4991503;28;20063;-49
2021/03/11 05:39:42;;;;;;;45.97;33.80;;;4.10;99.90;;;;;;5022865;28;20041;-50
2021/03/11 05:42:11;;;;;;;40.72;28.13;;;4.20;99.90;;;;;;5030932;28;20478;-48
2021/03/11 05:44:38;;;;;;;38.58;26.27;;;4.30;99.90;;;;;;5030787;28;20526;-49
2021/03/11 05:47:08;;;;;;;45.22;26.90;;;4.40;99.90;;;;;;5031282;28;20037;-48
2021/03/11 05:49:34;;;;;;;36.22;24.88;;;4.50;99.90;;;;;;5031253;28;20052;-49
2021/03/11 05:52:01;;;;;;;40.95;25.25;;;4.50;99.90;;;;;;5031985;28;20103;-51
2021/03/11 05:54:28;;;;;;;37.38;24.50;;;4.70;99.90;;;;;;5034956;28;20396;-49
2021/03/11 05:56:55;;;;;;;36.20;25.08;;;4.70;99.90;;;;;;5034479;28;20571;-48
2021/03/11 05:59:21;;;;;;;33.28;24.65;;;4.80;99.90;;;;;;5070154;28;20061;-49
2021/03/11 06:01:47;;;;;;;34.83;25.05;;;4.90;99.90;;;;;;5076995;28;20036;-49
2021/03/11 06:04:15;;;;;;;39.63;24.38;;;5.00;99.90;;;;;;5091818;28;20048;-48
2021/03/11 06:06:43;;;;;;;31.77;24.85;;;5.10;99.90;;;;;;5076787;28;20074;-50
2021/03/11 06:09:09;;;;;;;33.70;24.75;;;5.10;99.90;;;;;;5076877;28;20028;-51
2021/03/11 06:11:37;;;;;;;36.38;24.77;;;5.30;99.90;;;;;;5076708;28;20059;-49
2021/03/11 06:14:06;;;;;;;35.17;25.40;;;5.40;99.90;;;;;;5076655;28;20107;-49
2021/03/11 06:16:34;;;;;;;35.95;25.30;;;5.50;99.90;;;;;;5076452;28;20367;-49
2021/03/11 06:19:00;;;;;;;33.83;25.55;;;5.70;99.90;;;;;;5094538;28;20073;-49
2021/03/11 06:21:26;;;;;;;33.33;26.13;;;;;;;;;;5094203;28;20032;-49
2021/03/11 06:23:52;;;;;;;37.70;27.05;;;5.90;99.90;;;;;;5094032;28;20044;-50
2021/03/11 06:26:17;;;;;;;36.25;25.48;;;6.20;99.90;;;;;;5094442;28;20159;-49
2021/03/11 06:28:46;;;;;;;36.78;26.63;;;6.30;99.90;;;;;;5094828;28;20336;-49
2021/03/11 06:31:22;;;;;;;41.33;26.95;;;6.40;99.90;;;;;;5094447;28;20102;-49
2021/03/11 06:33:52;;;;;;;38.20;26.65;;;;;;;;;;5094426;28;20043;-50
2021/03/11 06:36:19;;;;;;;45.50;31.38;;;6.90;99.90;;;;;;5093569;28;20036;-48
2021/03/11 06:38:45;;;;;;;39.60;28.33;;;7.00;99.90;;;;;;5092949;28;20036;-49
2021/03/11 06:41:11;;;;;;;40.70;29.75;;;7.00;99.90;;;;;;5092216;28;20035;-49
2021/03/11 06:43:55;;;;;;;37.28;27.80;;;7.40;99.90;;;;;;5091432;28;20055;-49
2021/03/11 06:46:26;;;;;;;33.67;25.17;;;7.50;99.90;;;;;;5074040;28;20093;-49
2021/03/11 06:49:09;;;;;;;30.70;23.55;;;7.80;99.90;;;;;;5089075;28;20039;-50
2021/03/11 06:51:35;;;;;;;30.48;23.20;;;;;;;;;;5053798;28;20121;-48
2021/03/11 06:54:02;;;;;;;34.40;24.70;;;;;;;;;;5072747;28;20028;-50
2021/03/11 06:56:29;;;;;;;31.27;23.45;;;;;;;;;;5073287;28;20107;-49
2021/03/11 06:59:15;;;;;;;31.75;23.75;;;;;;;;;;5073071;28;20357;-49
2021/03/11 07:01:52;;;;;;;40.15;25.00;;;9.00;99.90;;;;;;5073168;28;20516;-49
2021/03/11 07:04:22;;;;;;;32.42;23.02;;;9.80;98.40;;;;;;5072090;28;20044;-49
2021/03/11 07:06:48;;;;;;;31.10;23.25;;;10.20;96.10;;;;;;5073218;28;20028;-49
2021/03/11 07:09:14;;;;;;;27.40;22.13;;;10.60;95.30;;;;;;5073268;28;20425;-50
2021/03/11 07:11:53;;;;;;;28.52;22.27;;;;;;;;;;5074972;28;20033;-50
2021/03/11 07:14:26;;;;;;;28.30;21.50;;;;;;;;;;5089945;28;20029;-50
2021/03/11 07:16:51;;;;;;;;;;;11.70;90.10;;;;;;5075895;28;20029;-51
2021/03/11 07:19:18;;;;;;;27.33;20.73;;;12.10;90.10;;;;;;5074957;28;20370;-49
2021/03/11 07:21:56;;;;;;;30.52;21.48;;;12.50;84.40;;;;;;5074972;28;20483;-50
2021/03/11 07:24:32;;;;;;;31.88;25.13;;;13.00;81.20;;;;;;5074990;28;20041;-50
2021/03/11 07:26:59;;;;;;;33.15;24.40;;;13.10;80.30;;;;;;5089661;28;20033;-48
2021/03/11 07:29:25;;;;;;;41.00;27.73;;;13.40;75.20;;;;;;5074892;28;20021;-51
2021/03/11 07:32:11;;;;;;;29.58;22.05;;;13.70;75.50;;;;;;5074967;28;20028;-52
2021/03/11 07:34:37;;;;;;;32.90;21.92;;;13.90;72.60;;;;;;5074329;28;20066;-51
2021/03/11 07:37:03;;;;;;;31.05;22.17;;;14.30;70.90;;;;;;5089803;28;20117;-55
2021/03/11 07:39:44;;;;;;;28.58;22.35;;;14.60;67.30;;;;;;5075081;28;20074;-51
2021/03/11 07:42:10;;;;;;;24.92;19.83;;;15.10;67.20;;;;;;5074459;28;20039;-51
2021/03/11 07:44:37;;;;;;;29.70;21.25;;;15.00;63.80;;;;;;5074709;28;20348;-50
2021/03/11 07:47:07;;;;;;;32.60;25.08;;;15.20;65.00;;;;;;5074638;28;20028;-50
2021/03/11 07:49:33;;;;;;;30.08;23.85;;;15.50;63.70;;;;;;5074542;28;20449;-49
2021/03/11 07:52:01;;;;;;;28.52;21.90;;;15.70;63.20;;;;;;5074521;28;20048;-50
2021/03/11 07:54:27;;;;;;;29.23;21.58;;;15.20;71.70;;;;;;5074421;28;20025;-54
2021/03/11 07:56:53;;;;;;;30.98;22.23;;;15.50;61.60;;;;;;5073294;28;20097;-53
2021/03/11 07:59:19;;;;;;;23.92;18.10;;;15.10;62.60;;;;;;5074575;28;20154;-54
2021/03/11 08:01:49;;;;;;;24.40;20.15;;;16.00;60.50;;;;;;5074475;28;20108;-53
2021/03/11 08:04:18;;;;;;;24.30;18.55;;;16.30;57.80;;;;;;5089031;28;20044;-51
2021/03/11 08:06:44;;;;;;;23.70;18.67;;;;;;;;;;5055414;28;20641;-49
2021/03/11 08:09:10;;;;;;;23.48;18.65;;;17.80;54.90;;;;;;5074616;28;20361;-49
2021/03/11 08:11:38;;;;;;;27.58;19.05;;;18.40;54.20;;;;;;5054780;28;20059;-50
2021/03/11 08:14:16;;;;;;;29.35;20.05;;;;;;;;;;5074147;28;20031;-50
2021/03/11 08:16:43;;;;;;;29.27;19.65;;;;;;;;;;5074252;28;20025;-52
2021/03/11 08:19:08;;;;;;;23.83;19.02;;;19.70;52.20;;;;;;5072633;28;20032;-54
2021/03/11 08:21:34;;;;;;;23.77;18.85;;;19.60;50.60;;;;;;5092948;27;20074;-51
2021/03/11 08:24:00;;;;;;;27.10;18.23;;;19.90;49.80;;;;;;5073911;28;20032;-48
2021/03/11 08:26:38;;;;;;;23.10;18.15;;;19.30;49.10;;;;;;5073827;28;20120;-54
2021/03/11 08:29:19;;;;;;;23.67;18.55;;;;;;;;;;5074056;28;20024;-55
2021/03/11 08:31:46;;;;;;;25.45;18.33;;;19.40;71.80;;;;;;5073834;28;20033;-49
2021/03/11 08:34:33;;;;;;;24.05;17.90;;;19.60;49.00;;;;;;5073470;28;20039;-54
2021/03/11 08:37:19;;;;;;;23.10;18.45;;;;;;;;;;5073923;28;20028;-51
2021/03/11 08:39:45;;;;;;;22.05;17.92;;;20.90;46.60;;;;;;5074051;28;20025;-47
2021/03/11 08:42:49;;;;;;;24.05;17.98;;;21.40;45.40;;;;;;5073689;28;20032;-48
2021/03/11 08:45:37;;;;;;;21.77;17.67;;;;;;;;;;5073896;28;20033;-46
2021/03/11 08:48:17;;;;;;;23.20;18.27;;;21.60;43.20;;;;;;5073342;28;20039;-48
2021/03/11 08:50:48;;;;;;;19.98;17.25;;;21.70;43.60;;;;;;5073453;28;20052;-52
2021/03/11 08:53:36;;;;;;;40.58;29.77;;;22.10;42.70;;;;;;5073782;28;20040;-49
2021/03/11 08:56:22;;;;;;;23.60;18.15;;;22.00;43.40;;;;;;5092328;28;20490;-50
2021/03/11 08:59:07;;;;;;;23.88;18.83;;;22.50;42.00;;;;;;5107304;28;20059;-50
2021/03/11 09:01:33;;;;;;;28.88;22.23;;;22.70;42.50;;;;;;5107914;28;20036;-49
2021/03/11 09:03:59;;;;;;;26.85;21.73;;;21.50;42.30;;;;;;5093220;28;20101;-47
2021/03/11 09:06:57;;;;;;;26.20;19.52;;;21.40;42.10;;;;;;5093810;28;20035;-50
2021/03/11 09:09:35;;;;;;;26.27;17.60;;;22.00;42.90;;;;;;5093805;28;20025;-50
2021/03/11 09:12:04;;;;;;;22.17;17.90;;;22.20;42.40;;;;;;5093309;28;20721;-50
2021/03/11 09:14:29;;;;;;;25.10;20.48;;;22.40;41.50;;;;;;5091444;28;20036;-48
2021/03/11 09:17:10;;;;;;;22.27;16.73;;;22.20;41.00;;;;;;5108661;28;20042;-52
2021/03/11 09:19:47;;;;;;;22.70;18.00;;;22.90;39.40;;;;;;5108434;28;20093;-52
2021/03/11 09:22:36;;;;;;;23.33;18.45;;;21.70;41.30;;;;;;5093705;28;20026;-47
2021/03/11 09:25:13;;;;;;;21.25;17.00;;;21.00;40.50;;;;;;5093247;28;20071;-47
2021/03/11 09:27:57;;;;;;;20.17;16.30;;;22.00;40.30;;;;;;5096098;28;20028;-48
2021/03/11 09:30:35;;;;;;;21.52;17.20;;;22.20;40.50;;;;;;5097704;28;20077;-49
2021/03/11 09:33:12;;;;;;;21.75;17.02;;;22.50;39.80;;;;;;5097157;28;20385;-47
2021/03/11 09:35:39;;;;;;;20.38;18.20;;;22.80;37.40;;;;;;5097723;28;20047;-52
2021/03/11 09:38:06;;;;;;;23.08;17.13;;;21.70;37.80;;;;;;5095112;28;20036;-52
2021/03/11 09:40:35;;;;;;;19.92;15.48;;;21.00;38.70;;;;;;5094874;28;20039;-50
2021/03/11 09:43:04;;;;;;;20.52;17.77;;;20.40;39.70;;;;;;5094800;28;20544;-51
2021/03/11 09:45:30;;;;;;;21.27;16.45;;;19.80;40.00;;;;;;5095207;28;20119;-49
2021/03/11 09:47:56;;;;;;;16.45;14.43;;;21.30;39.40;;;;;;5094697;28;20035;-49
2021/03/11 09:50:22;;;;;;;19.05;17.05;;;21.80;36.70;;;;;;5094886;28;20028;-53
2021/03/11 09:52:58;;;;;;;16.67;14.07;;;22.50;36.30;;;;;;5061070;28;20086;-50
2021/03/11 09:55:24;;;;;;;17.38;14.35;;;20.40;35.20;;;;;;5094722;28;20372;-49
2021/03/11 09:57:50;;;;;;;16.75;14.40;;;17.70;37.20;;;;;;5061210;28;20061;-51
2021/03/11 10:00:18;;;;;;;17.92;15.07;;;18.50;38.40;;;;;;5061106;28;20035;-50
2021/03/11 10:02:53;;;;;;;15.68;13.23;;;19.60;38.70;;;;;;5060496;28;20043;-49
2021/03/11 10:05:20;;;;;;;17.80;14.20;;;19.90;37.40;;;;;;5060992;28;20039;-50
2021/03/11 10:07:56;;;;;;;19.52;14.90;;;20.60;36.60;;;;;;5061008;28;20039;-48
2021/03/11 10:10:22;;;;;;;16.13;13.80;;;21.30;36.10;;;;;;5094464;28;20036;-51
2021/03/11 10:12:49;;;;;;;15.75;13.13;;;20.50;34.70;;;;;;5094575;28;20127;-48
2021/03/11 10:15:16;;;;;;;15.98;13.88;;;18.00;37.30;;;;;;5111986;28;20119;-47
2021/03/11 10:17:43;;;;;;;17.75;13.88;;;17.70;38.50;;;;;;5060543;28;20040;-52
2021/03/11 10:20:22;;;;;;;17.15;13.13;;;;;;;;;;5096661;28;20036;-48
2021/03/11 10:22:48;;;;;;;16.48;12.77;;;20.10;36.40;;;;;;5095185;28;20168;-49
2021/03/11 10:25:16;;;;;;;18.38;16.50;;;21.30;36.30;;;;;;5111325;28;20471;-48
2021/03/11 10:27:47;;;;;;;14.38;12.25;;;21.50;35.10;;;;;;5114591;28;20407;-52
2021/03/11 10:30:20;;;;;;;21.17;14.05;;;20.60;35.80;;;;;;5097454;28;20123;-48
2021/03/11 10:32:56;;;;;;;18.80;12.60;;;20.60;35.40;;;;;;5113905;28;20039;-51
2021/03/11 10:35:28;;;;;;;15.70;13.00;;;21.80;35.10;;;;;;5114623;28;20531;-47
2021/03/11 10:37:54;;;;;;;14.95;11.55;;;21.90;42.40;;;;;;5113818;28;20035;-49
2021/03/11 10:40:24;;;;;;;20.58;15.52;;;20.20;36.30;;;;;;5052428;28;20068;-48
2021/03/11 10:42:54;;;;;;;15.13;13.25;;;19.40;37.50;;;;;;5053256;28;20045;-49
2021/03/11 10:45:25;;;;;;;27.30;21.92;;;17.90;38.60;;;;;;5053694;28;20166;-51
2021/03/11 10:48:03;;;;;;;13.95;11.93;;;;;;;;;;5053114;28;20041;-52
2021/03/11 10:50:31;;;;;;;15.52;12.73;;;15.50;72.40;;;;;;5053409;28;20451;-50
2021/03/11 10:52:57;;;;;;;15.00;12.43;;;15.00;41.30;;;;;;5053309;28;20514;-49
2021/03/11 10:55:28;;;;;;;12.65;10.30;;;;;;;;;;5053056;28;20067;-49
2021/03/11 10:57:54;;;;;;;19.70;13.00;;;;;;;;;;5053327;28;20132;-51
2021/03/11 11:00:30;;;;;;;12.93;11.02;;;;;;;;;;5053411;28;20211;-48
2021/03/11 11:02:58;;;;;;;16.52;11.73;;;14.40;75.10;;;;;;5052874;28;20037;-49
2021/03/11 11:05:25;;;;;;;15.70;12.68;;;14.30;63.20;;;;;;5053356;28;20041;-52
2021/03/11 11:07:51;;;;;;;16.95;12.60;;;15.10;61.10;;;;;;5053274;28;20048;-53
2021/03/11 11:10:19;;;;;;;12.20;10.18;;;16.00;40.30;;;;;;5056174;28;20037;-52
2021/03/11 11:12:45;;;;;;;12.18;9.50;;;14.50;42.20;;;;;;5095887;28;20088;-52
2021/03/11 11:15:12;;;;;;;16.75;10.73;;;13.90;42.30;;;;;;5095983;28;20031;-53
2021/03/11 11:17:37;;;;;;;13.20;10.95;;;14.50;42.70;;;;;;5095427;28;20042;-52
2021/03/11 11:20:06;;;;;;;12.93;11.40;;;15.50;41.60;;;;;;5110552;28;20394;-49
2021/03/11 11:22:33;;;;;;;15.10;10.90;;;14.50;42.70;;;;;;5093289;28;20036;-53
2021/03/11 11:24:59;;;;;;;14.52;11.55;;;15.00;42.90;;;;;;5110039;28;20055;-53
2021/03/11 11:27:25;;;;;;;13.13;9.93;;;;;;;;;;5095359;28;20038;-54
2021/03/11 11:29:52;;;;;;;13.45;10.40;;;15.60;41.60;;;;;;5095148;28;20028;-53
2021/03/11 11:32:17;;;;;;;12.07;10.77;;;16.90;64.20;;;;;;5094797;28;20028;-53
2021/03/11 11:34:43;;;;;;;17.20;11.00;;;17.70;48.70;;;;;;5110226;28;20040;-51
2021/03/11 11:37:09;;;;;;;14.65;11.82;;;18.20;39.90;;;;;;5093120;28;20093;-48
2021/03/11 11:39:36;;;;;;;15.70;13.07;;;18.10;40.40;;;;;;5094908;28;20024;-49
2021/03/11 11:42:03;;;;;;;11.15;9.15;;;18.00;39.80;;;;;;5095141;28;20351;-48
2021/03/11 11:44:29;;;;;;;14.07;12.07;;;15.50;41.80;;;;;;5092821;28;20048;-49
2021/03/11 11:46:55;;;;;;;21.05;14.75;;;15.30;56.30;;;;;;5094678;28;20085;-52
2021/03/11 11:49:20;;;;;;;15.80;13.18;;;15.10;43.80;;;;;;5094771;28;20356;-49
2021/03/11 11:51:46;;;;;;;16.00;13.88;;;15.90;42.60;;;;;;5094970;28;20513;-47
2021/03/11 11:54:12;;;;;;;17.10;12.75;;;15.60;42.80;;;;;;5109448;28;20100;-50
2021/03/11 11:56:38;;;;;;;16.90;13.15;;;15.40;41.30;;;;;;5094758;28;20070;-49
2021/03/11 11:59:03;;;;;;;13.07;9.00;;;15.80;42.80;;;;;;5094545;28;20036;-50
2021/03/11 12:01:30;;;;;;;13.43;10.02;;;;;;;;;;5094380;28;20145;-49
2021/03/11 12:03:56;;;;;;;18.55;13.20;;;;;;;;;;5094442;28;20060;-49
2021/03/11 12:06:21;;;;;;;14.57;9.90;;;15.80;83.70;;;;;;5109473;28;20044;-48
2021/03/11 12:08:47;;;;;;;14.32;10.60;;;16.40;62.90;;;;;;5094234;28;20043;-52
2021/03/11 12:11:13;;;;;;;16.30;13.10;;;16.70;60.40;;;;;;5094439;28;20069;-49
2021/03/11 12:13:39;;;;;;;16.38;12.18;;;16.00;54.30;;;;;;5109299;28;20071;-50
2021/03/11 12:16:06;;;;;;;15.50;10.43;;;;;;;;;;5109100;28;20051;-50
2021/03/11 12:18:32;;;;;;;14.15;9.73;;;17.30;73.60;;;;;;5094305;28;20162;-50
2021/03/11 12:20:58;;;;;;;12.15;10.77;;;15.80;56.80;;;;;;5094182;28;20114;-48
2021/03/11 12:23:24;;;;;;;15.95;11.25;;;15.60;52.60;;;;;;5091761;28;20048;-48
2021/03/11 12:25:49;;;;;;;11.40;9.57;;;15.50;43.10;;;;;;5094522;28;20032;-47
2021/03/11 12:28:15;;;;;;;18.40;13.05;;;14.80;54.50;;;;;;5094273;28;20039;-51
2021/03/11 12:30:41;;;;;;;20.13;13.70;;;15.80;67.50;;;;;;5108937;28;20046;-51
2021/03/11 12:33:08;;;;;;;16.40;11.35;;;;;;;;;;5094088;28;20031;-46
2021/03/11 12:35:34;;;;;;;12.93;11.07;;;;;;;;;;5094181;28;20028;-51
2021/03/11 12:37:59;;;;;;;12.18;10.65;;;15.80;42.40;;;;;;5093792;28;20063;-46
2021/03/11 12:40:26;;;;;;;17.38;13.77;;;15.90;43.10;;;;;;5093864;28;20032;-49
2021/03/11 12:42:52;;;;;;;14.25;11.65;;;15.70;43.20;;;;;;5057437;28;20028;-52
2021/03/11 12:45:21;;;;;;;11.52;9.00;;;14.40;44.00;;;;;;5024564;28;20044;-51
2021/03/11 12:47:47;;;;;;;12.48;10.40;;;14.00;48.00;;;;;;5091531;28;20059;-52
2021/03/11 12:50:14;;;;;;;11.30;9.20;;;13.50;46.20;;;;;;5091398;28;20475;-50